Time;durP1;ratioP1;P1;durP2;ratioP2;P2;SDS_P1;SDS_P2;PMS_P1;PMS_P2;Temp;Humidity;BMP_temperature;BMP_pressure;BME280_temperature;BME280_humidity;BME280_pressure;Samples;Min_cycle;Max_cycle;Signal;HPM_P1;HPM_P2
2022/06/04 00:01:31;;;;;;;14.10;12.73;;;18.60;99.90;;;;;;6221096;23;20414;-89
2022/06/04 00:03:58;;;;;;;17.60;13.13;;;18.60;99.90;;;;;;6236590;23;20417;-89
2022/06/04 00:06:25;;;;;;;14.33;12.97;;;18.50;99.90;;;;;;6232872;23;20462;-88
2022/06/04 00:08:55;;;;;;;15.80;13.30;;;18.50;99.90;;;;;;6229165;23;20497;-88
2022/06/04 00:16:55;;;;;;;14.23;12.83;;;18.70;99.90;;;;;;6225037;23;20444;-88
2022/06/04 00:19:23;;;;;;;14.37;12.97;;;18.70;99.90;;;;;;6224471;23;20410;-89
2022/06/04 00:21:50;;;;;;;14.37;12.90;;;18.60;99.90;;;;;;6221596;23;20434;-88
2022/06/04 00:24:18;;;;;;;14.40;12.93;;;18.50;99.90;;;;;;6220341;23;20398;-88
2022/06/04 00:26:45;;;;;;;14.40;12.90;;;18.50;99.90;;;;;;6220893;23;20434;-88
2022/06/04 00:29:15;;;;;;;14.20;12.80;;;18.50;99.90;;;;;;6240724;23;20420;-88
2022/06/04 00:31:42;;;;;;;14.23;12.93;;;18.50;99.90;;;;;;6242019;23;20465;-88
2022/06/04 00:34:12;;;;;;;15.40;13.90;;;18.30;99.90;;;;;;6231088;23;20438;-88
2022/06/04 00:36:39;;;;;;;15.00;12.90;;;18.30;99.90;;;;;;6241317;23;20434;-89
2022/06/04 00:39:06;;;;;;;15.00;13.40;;;18.30;99.90;;;;;;6226911;23;20410;-88
2022/06/04 00:41:49;;;;;;;16.10;14.70;;;18.30;99.90;;;;;;6230785;23;20380;-88
2022/06/04 00:44:56;;;;;;;18.43;14.30;;;18.30;99.90;;;;;;6241149;23;20417;-89
2022/06/04 00:47:28;;;;;;;14.57;13.13;;;18.20;99.90;;;;;;6237810;23;20433;-88
2022/06/04 00:49:55;;;;;;;14.83;13.33;;;18.20;99.90;;;;;;6220760;23;20512;-89
2022/06/04 00:52:22;;;;;;;16.27;14.10;;;18.20;99.90;;;;;;6220903;23;20372;-88
2022/06/04 00:54:52;;;;;;;14.60;13.30;;;18.30;99.90;;;;;;6220039;23;20409;-88
2022/06/04 00:57:48;;;;;;;15.10;13.60;;;18.20;99.90;;;;;;6219890;23;20437;-88
2022/06/04 01:00:20;;;;;;;16.13;14.40;;;18.30;99.90;;;;;;6219908;23;20389;-87
2022/06/04 01:03:05;;;;;;;15.30;13.80;;;18.30;99.90;;;;;;6219439;23;20405;-88
2022/06/04 01:05:42;;;;;;;16.03;14.30;;;18.30;99.90;;;;;;6218495;23;20481;-89
2022/06/04 01:08:34;;;;;;;15.47;13.87;;;18.30;99.90;;;;;;6218786;23;20407;-89
2022/06/04 01:11:13;;;;;;;16.03;14.33;;;18.20;99.90;;;;;;6237558;23;20376;-90
2022/06/04 01:13:57;;;;;;;14.57;13.17;;;18.30;99.90;;;;;;6219772;23;20419;-89
2022/06/04 01:16:33;;;;;;;15.03;13.63;;;18.10;99.90;;;;;;6236026;23;20949;-88
2022/06/04 01:19:20;;;;;;;16.37;14.77;;;18.10;99.90;;;;;;6225081;23;20390;-88
2022/06/04 01:22:03;;;;;;;16.20;14.60;;;18.10;99.90;;;;;;6230562;23;20405;-89
2022/06/04 01:24:59;;;;;;;16.20;14.50;;;18.00;99.90;;;;;;6240133;23;20405;-89
2022/06/04 01:27:33;;;;;;;16.67;14.97;;;18.00;99.90;;;;;;6237779;23;20392;-89
2022/06/04 01:30:07;;;;;;;16.67;14.83;;;17.90;99.90;;;;;;6223176;23;20422;-88
2022/06/04 01:32:39;;;;;;;18.77;14.17;;;18.00;99.90;;;;;;6220990;23;20436;-88
2022/06/04 01:35:13;;;;;;;16.57;15.03;;;18.00;99.90;;;;;;6221852;23;20513;-89
2022/06/04 01:37:46;;;;;;;15.93;14.47;;;18.10;99.90;;;;;;6221416;23;20412;-89
2022/06/04 01:43:08;;;;;;;15.23;13.73;;;18.10;99.90;;;;;;6220871;23;20404;-89
2022/06/04 01:45:36;;;;;;;15.30;13.90;;;18.00;99.90;;;;;;6221969;23;20711;-87
2022/06/04 01:48:05;;;;;;;17.40;15.80;;;18.00;99.90;;;;;;6221545;23;20441;-88
2022/06/04 01:50:38;;;;;;;16.17;14.50;;;18.00;99.90;;;;;;6224029;23;20434;-88
2022/06/04 01:53:09;;;;;;;15.00;13.70;;;17.80;99.90;;;;;;6226402;23;20476;-88
2022/06/04 01:55:42;;;;;;;16.90;15.30;;;17.70;99.90;;;;;;6229600;23;20402;-88
2022/06/04 01:58:15;;;;;;;16.70;15.10;;;17.70;99.90;;;;;;6226183;23;20420;-88
2022/06/04 02:00:46;;;;;;;15.57;14.17;;;17.70;99.90;;;;;;6227041;23;20353;-88
2022/06/04 02:03:17;;;;;;;18.60;15.10;;;17.70;99.90;;;;;;6222481;23;20390;-89
2022/06/04 02:05:48;;;;;;;16.43;14.80;;;17.60;99.90;;;;;;6221562;23;20426;-89
2022/06/04 02:08:19;;;;;;;16.27;14.77;;;17.70;99.90;;;;;;6221379;23;20433;-89
2022/06/04 02:10:52;;;;;;;16.83;15.03;;;17.80;99.90;;;;;;6221659;23;20405;-88
2022/06/04 02:13:20;;;;;;;15.13;13.27;;;18.00;99.90;;;;;;6221378;23;20440;-87
2022/06/04 02:15:52;;;;;;;14.27;12.97;;;17.90;99.90;;;;;;6226230;23;20394;-88
2022/06/04 02:18:20;;;;;;;15.30;13.80;;;17.80;99.90;;;;;;6233042;23;20405;-90
2022/06/04 02:20:47;;;;;;;15.30;13.90;;;17.80;99.90;;;;;;6223774;23;20947;-88
2022/06/04 02:23:14;;;;;;;15.37;13.90;;;17.70;99.90;;;;;;6221319;23;20584;-89
2022/06/04 02:25:41;;;;;;;17.10;15.33;;;17.60;99.90;;;;;;6224211;23;20421;-89
2022/06/04 02:28:09;;;;;;;15.13;13.53;;;17.60;99.90;;;;;;6220771;23;20525;-89
2022/06/04 02:30:50;;;;;;;15.10;13.70;;;17.60;99.90;;;;;;6220890;23;20414;-88
2022/06/04 02:33:24;;;;;;;13.80;12.50;;;17.60;99.90;;;;;;6221002;23;20422;-87
2022/06/04 02:35:57;;;;;;;15.43;12.53;;;17.60;99.90;;;;;;6221397;23;20865;-88
2022/06/04 02:38:31;;;;;;;14.03;12.73;;;17.60;99.90;;;;;;6228665;23;20453;-87
2022/06/04 02:41:02;;;;;;;14.80;13.40;;;17.50;99.90;;;;;;6217088;23;20378;-88
2022/06/04 02:43:41;;;;;;;14.30;12.80;;;17.40;99.90;;;;;;6216865;23;20849;-88
2022/06/04 02:46:18;;;;;;;19.03;13.10;;;17.40;99.90;;;;;;6217070;23;20485;-88
2022/06/04 02:48:51;;;;;;;15.10;13.63;;;17.40;99.90;;;;;;6200240;23;20426;-88
2022/06/04 02:51:25;;;;;;;14.37;12.97;;;17.40;99.90;;;;;;6187812;23;20862;-88
2022/06/04 02:53:53;;;;;;;14.13;12.73;;;17.40;99.90;;;;;;6187950;23;20437;-88
2022/06/04 02:56:24;;;;;;;17.47;13.33;;;17.40;99.90;;;;;;6187421;23;20426;-88
2022/06/04 02:58:56;;;;;;;13.30;11.90;;;17.70;99.90;;;;;;6187364;23;20405;-89
2022/06/04 03:01:26;;;;;;;14.70;12.90;;;17.60;99.90;;;;;;6187656;23;20485;-88
2022/06/04 03:03:53;;;;;;;13.90;12.60;;;17.60;99.90;;;;;;6189147;23;20418;-89
2022/06/04 03:06:24;;;;;;;12.93;11.73;;;17.50;99.90;;;;;;6194732;23;20431;-89
2022/06/04 03:08:52;;;;;;;13.97;12.53;;;17.40;99.90;;;;;;6192637;23;20481;-87
2022/06/04 03:11:18;;;;;;;14.20;12.10;;;17.40;99.90;;;;;;6191019;23;20909;-89
2022/06/04 03:13:46;;;;;;;13.83;12.60;;;17.40;99.90;;;;;;6204281;23;20516;-89
2022/06/04 03:16:13;;;;;;;14.07;12.43;;;17.40;99.90;;;;;;6207182;23;20407;-88
2022/06/04 03:18:42;;;;;;;13.00;11.10;;;17.40;99.90;;;;;;6202484;23;20926;-88
2022/06/04 03:21:09;;;;;;;12.53;11.33;;;17.40;99.90;;;;;;6211488;23;20412;-85
2022/06/04 03:23:36;;;;;;;12.40;11.20;;;17.40;99.90;;;;;;6212380;23;20373;-88
2022/06/04 03:26:03;;;;;;;13.23;11.87;;;17.40;99.90;;;;;;6199241;23;20427;-89
2022/06/04 03:28:30;;;;;;;14.20;12.23;;;17.50;99.90;;;;;;6186927;23;20419;-88
2022/06/04 03:30:57;;;;;;;12.53;11.20;;;17.50;99.90;;;;;;6188048;23;20410;-89
2022/06/04 03:33:24;;;;;;;13.03;11.63;;;17.50;99.90;;;;;;6202998;23;20439;-89
2022/06/04 03:35:53;;;;;;;12.10;10.80;;;17.30;99.90;;;;;;6190456;23;20420;-89
2022/06/04 03:38:19;;;;;;;13.33;12.03;;;17.30;99.90;;;;;;6188948;23;20442;-88
2022/06/04 03:40:46;;;;;;;12.90;11.60;;;17.40;99.90;;;;;;6187211;23;20771;-89
2022/06/04 03:43:13;;;;;;;12.37;11.27;;;17.50;99.90;;;;;;6186933;23;20494;-89
2022/06/04 03:45:40;;;;;;;13.20;11.37;;;17.50;99.90;;;;;;6186201;23;20410;-88
2022/06/04 03:48:07;;;;;;;12.67;11.47;;;17.40;99.90;;;;;;6186844;23;20454;-88
2022/06/04 03:50:34;;;;;;;12.20;11.03;;;17.40;99.90;;;;;;6187697;23;20893;-89
2022/06/04 03:53:02;;;;;;;13.03;11.47;;;17.40;99.90;;;;;;6187576;23;20935;-89
2022/06/04 03:55:29;;;;;;;13.67;10.37;;;17.40;99.90;;;;;;6185490;23;20449;-89
2022/06/04 03:57:56;;;;;;;11.73;10.60;;;17.50;99.90;;;;;;6186494;23;20447;-89
2022/06/04 04:00:26;;;;;;;12.17;11.07;;;17.50;99.90;;;;;;6186415;23;20416;-89
2022/06/04 04:02:57;;;;;;;13.07;10.30;;;17.50;99.90;;;;;;6202237;23;20407;-88
2022/06/04 04:05:27;;;;;;;16.00;11.70;;;17.60;99.90;;;;;;6211708;23;20387;-88
2022/06/04 04:07:55;;;;;;;12.90;11.60;;;17.70;99.90;;;;;;6211442;23;20426;-88
2022/06/04 04:10:24;;;;;;;12.40;10.93;;;17.70;99.90;;;;;;6200072;23;20545;-89
2022/06/04 04:12:51;;;;;;;12.77;11.07;;;17.70;99.90;;;;;;6188897;23;20411;-89
2022/06/04 04:15:19;;;;;;;10.93;9.83;;;17.80;99.90;;;;;;6188263;23;20501;-88
2022/06/04 04:17:47;;;;;;;12.30;11.10;;;17.80;99.90;;;;;;6186248;23;20505;-89
2022/06/04 04:20:17;;;;;;;11.93;10.83;;;17.90;99.90;;;;;;6186401;23;20414;-88
2022/06/04 04:22:45;;;;;;;13.50;11.50;;;17.80;99.90;;;;;;6186969;23;20372;-88
2022/06/04 04:25:14;;;;;;;13.00;11.53;;;17.80;99.90;;;;;;6204154;23;20410;-88
2022/06/04 04:27:42;;;;;;;12.50;10.77;;;17.80;99.90;;;;;;6188049;23;20435;-89
2022/06/04 04:30:12;;;;;;;13.00;10.87;;;17.80;99.90;;;;;;6187352;23;20385;-88
2022/06/04 04:32:40;;;;;;;11.47;10.40;;;17.80;99.90;;;;;;6188031;23;20581;-89
2022/06/04 04:35:12;;;;;;;10.50;9.50;;;17.90;99.90;;;;;;6203630;23;20447;-91
2022/06/04 04:37:39;;;;;;;11.10;10.00;;;18.00;99.90;;;;;;6190068;23;20446;-88
2022/06/04 04:40:08;;;;;;;12.27;11.07;;;18.10;99.90;;;;;;6192192;23;20398;-89
2022/06/04 04:42:35;;;;;;;13.63;10.83;;;18.20;99.90;;;;;;6188388;23;20438;-88
2022/06/04 04:45:04;;;;;;;12.97;10.70;;;18.30;99.90;;;;;;6188642;23;20429;-89
2022/06/04 04:47:31;;;;;;;13.47;11.00;;;18.40;99.90;;;;;;6189117;23;20438;-89
2022/06/04 04:49:58;;;;;;;14.20;9.80;;;18.40;99.90;;;;;;6187601;23;20438;-89
2022/06/04 04:52:25;;;;;;;11.67;10.57;;;18.60;99.90;;;;;;6189780;23;20773;-88
2022/06/04 04:54:53;;;;;;;11.70;10.07;;;18.80;99.90;;;;;;6188019;23;20842;-89
2022/06/04 04:57:20;;;;;;;13.20;10.63;;;18.70;99.90;;;;;;6189363;23;20410;-87
2022/06/04 04:59:47;;;;;;;12.60;9.83;;;18.80;99.90;;;;;;6188675;23;20421;-88
2022/06/04 05:02:15;;;;;;;12.23;10.93;;;18.90;99.90;;;;;;6194339;23;20698;-89
2022/06/04 05:04:42;;;;;;;12.17;10.93;;;18.90;99.90;;;;;;6187791;23;20847;-89
2022/06/04 05:07:11;;;;;;;11.77;9.93;;;18.90;99.90;;;;;;6207253;23;20410;-89
2022/06/04 05:09:39;;;;;;;10.33;9.30;;;19.00;99.90;;;;;;6196795;23;20442;-89
2022/06/04 05:12:06;;;;;;;12.83;10.13;;;19.10;99.90;;;;;;6187819;23;20494;-89
2022/06/04 05:14:33;;;;;;;12.47;10.13;;;19.10;99.90;;;;;;6189850;23;20473;-89
2022/06/04 05:17:00;;;;;;;11.60;10.50;;;19.20;99.90;;;;;;6199361;23;20422;-88
2022/06/04 05:19:28;;;;;;;12.17;9.30;;;19.30;99.90;;;;;;6213033;23;20539;-88
2022/06/04 05:21:56;;;;;;;10.53;9.33;;;19.40;99.90;;;;;;6207859;23;20437;-88
2022/06/04 05:24:25;;;;;;;12.33;10.17;;;19.50;99.90;;;;;;6209230;23;20403;-87
2022/06/04 05:26:53;;;;;;;12.90;8.97;;;19.60;99.90;;;;;;6210939;23;20434;-88
2022/06/04 05:29:20;;;;;;;9.93;9.03;;;19.80;99.90;;;;;;6198295;23;20940;-88
2022/06/04 05:31:48;;;;;;;10.20;9.20;;;20.00;99.90;;;;;;6200381;23;20414;-88
2022/06/04 05:34:16;;;;;;;9.67;8.60;;;19.90;99.90;;;;;;6187902;23;20445;-89
2022/06/04 05:36:46;;;;;;;11.23;8.73;;;19.90;99.90;;;;;;6186901;23;20421;-89
2022/06/04 05:39:13;;;;;;;10.10;9.10;;;19.90;99.90;;;;;;6187411;23;20457;-89
2022/06/04 05:41:41;;;;;;;10.93;9.23;;;19.90;99.90;;;;;;6188858;23;20419;-89
2022/06/04 05:44:08;;;;;;;9.23;8.33;;;19.90;99.90;;;;;;6189023;23;20411;-89
2022/06/04 05:46:35;;;;;;;10.73;9.03;;;20.00;99.90;;;;;;6188906;23;20433;-89
2022/06/04 05:49:04;;;;;;;10.43;9.43;;;20.20;99.90;;;;;;6188304;23;20501;-88
2022/06/04 05:51:34;;;;;;;10.70;9.47;;;20.30;99.90;;;;;;6188589;23;20422;-88
2022/06/04 05:54:02;;;;;;;11.23;9.67;;;20.50;99.90;;;;;;6188385;23;20442;-89
2022/06/04 05:56:31;;;;;;;11.50;10.00;;;20.20;99.90;;;;;;6188038;23;20402;-88
2022/06/04 05:59:10;;;;;;;10.70;9.20;;;20.10;99.90;;;;;;6188843;23;20450;-89
2022/06/04 06:01:42;;;;;;;10.47;8.37;;;20.20;99.90;;;;;;6189851;23;20514;-88
2022/06/04 06:04:11;;;;;;;10.67;8.97;;;20.20;99.90;;;;;;6187743;23;20407;-88
2022/06/04 06:06:47;;;;;;;9.27;8.23;;;20.20;99.90;;;;;;6189034;23;20419;-89
2022/06/04 06:09:55;;;;;;;10.63;7.07;;;20.20;99.90;;;;;;6188276;23;20441;-90
2022/06/04 06:12:28;;;;;;;8.50;6.73;;;20.10;99.90;;;;;;6190895;23;20709;-89
2022/06/04 06:15:17;;;;;;;9.13;7.30;;;20.00;99.90;;;;;;6188358;23;20448;-89
2022/06/04 06:17:48;;;;;;;10.70;7.27;;;19.90;99.90;;;;;;6187575;23;20719;-89
2022/06/04 06:20:16;;;;;;;12.30;8.40;;;20.00;99.90;;;;;;6188492;23;20526;-88
2022/06/04 06:22:48;;;;;;;11.27;7.53;;;20.00;99.90;;;;;;6189332;23;20423;-88
2022/06/04 06:25:17;;;;;;;9.13;8.07;;;19.90;99.90;;;;;;6189024;23;20446;-89
2022/06/04 06:27:48;;;;;;;13.03;9.03;;;19.80;99.90;;;;;;6191749;23;20468;-89
2022/06/04 06:30:15;;;;;;;10.93;8.03;;;19.60;99.90;;;;;;6200728;23;20424;-88
2022/06/04 06:33:07;;;;;;;10.50;8.80;;;19.50;99.90;;;;;;6193872;23;20485;-89
2022/06/04 06:35:37;;;;;;;10.53;9.43;;;19.50;99.90;;;;;;6188220;23;20477;-90
2022/06/04 06:38:07;;;;;;;10.60;8.57;;;19.40;99.90;;;;;;6190880;23;20967;-89
2022/06/04 06:40:40;;;;;;;14.37;9.80;;;19.50;99.90;;;;;;6197288;23;20422;-89
2022/06/04 06:43:12;;;;;;;10.50;9.40;;;19.40;99.90;;;;;;6188493;23;20453;-87
2022/06/04 06:45:44;;;;;;;10.53;8.80;;;19.50;99.90;;;;;;6190903;23;20418;-88
2022/06/04 06:48:14;;;;;;;11.00;9.20;;;19.50;99.90;;;;;;6211234;23;20426;-88
2022/06/04 06:50:49;;;;;;;9.47;8.37;;;19.70;99.90;;;;;;6202727;23;20419;-89
2022/06/04 06:53:22;;;;;;;11.37;8.50;;;19.90;99.90;;;;;;6197882;23;20397;-90
2022/06/04 06:56:12;;;;;;;10.87;8.43;;;19.90;99.90;;;;;;6218788;22;20472;-91
2022/06/04 06:59:54;;;;;;;10.80;8.70;;;19.80;99.90;;;;;;6223598;22;20450;-89
2022/06/04 07:02:21;;;;;;;10.00;7.77;;;20.10;99.90;;;;;;6190048;23;20406;-88
2022/06/04 07:04:48;;;;;;;11.50;8.87;;;20.00;99.90;;;;;;6189218;23;20461;-89
2022/06/04 07:07:15;;;;;;;13.80;9.50;;;20.00;99.90;;;;;;6187677;23;20494;-88
2022/06/04 07:09:44;;;;;;;9.83;8.83;;;19.90;99.90;;;;;;6187935;23;20971;-89
2022/06/04 07:12:13;;;;;;;11.13;9.20;;;19.90;99.90;;;;;;6187479;23;20459;-89
2022/06/04 07:14:42;;;;;;;11.23;9.70;;;19.90;99.90;;;;;;6187683;23;20534;-88
2022/06/04 07:17:10;;;;;;;11.07;8.60;;;20.00;99.90;;;;;;6186968;23;20418;-89
2022/06/04 07:19:37;;;;;;;11.40;9.70;;;20.10;99.90;;;;;;6187693;23;20435;-89
2022/06/04 07:22:10;;;;;;;10.40;9.30;;;20.20;99.90;;;;;;6187410;23;20468;-89
2022/06/04 07:24:38;;;;;;;11.13;8.83;;;20.20;99.90;;;;;;6191177;23;20449;-88
2022/06/04 07:27:10;;;;;;;10.10;8.50;;;20.20;99.90;;;;;;6196374;23;20419;-89
2022/06/04 07:29:40;;;;;;;11.33;9.33;;;20.20;99.90;;;;;;6196838;23;20443;-88
2022/06/04 07:32:09;;;;;;;14.33;9.53;;;20.40;99.90;;;;;;6194738;23;20402;-90
2022/06/04 07:34:38;;;;;;;11.13;8.97;;;20.50;99.90;;;;;;6190247;23;20440;-89
2022/06/04 07:37:10;;;;;;;13.57;10.03;;;20.40;99.90;;;;;;6191815;23;20490;-88
2022/06/04 07:39:40;;;;;;;12.50;10.20;;;20.40;99.90;;;;;;6192924;23;20435;-89
2022/06/04 07:42:10;;;;;;;14.17;10.60;;;20.40;99.90;;;;;;6191292;23;20486;-88
2022/06/04 07:44:38;;;;;;;10.70;9.13;;;20.60;99.90;;;;;;6193445;23;20725;-88
2022/06/04 07:47:09;;;;;;;9.37;8.23;;;20.70;99.90;;;;;;6191769;23;20453;-89
2022/06/04 07:49:36;;;;;;;12.37;9.50;;;21.00;99.90;;;;;;6191807;23;20465;-90
2022/06/04 07:52:04;;;;;;;10.80;9.10;;;21.00;99.90;;;;;;6191058;23;20426;-90
2022/06/04 07:54:31;;;;;;;12.50;9.90;;;20.90;99.90;;;;;;6190916;23;20445;-89
2022/06/04 07:57:00;;;;;;;25.10;11.70;;;20.90;99.90;;;;;;6192589;23;20410;-89
2022/06/04 07:59:28;;;;;;;18.77;11.10;;;20.90;99.90;;;;;;6193774;23;20462;-89
2022/06/04 08:01:56;;;;;;;12.23;11.07;;;20.80;99.90;;;;;;6192343;23;20461;-90
2022/06/04 08:04:24;;;;;;;22.70;12.47;;;20.90;99.90;;;;;;6188995;23;20775;-88
2022/06/04 08:06:56;;;;;;;13.23;11.20;;;20.80;99.90;;;;;;6188799;23;20885;-88
2022/06/04 08:09:24;;;;;;;14.67;12.27;;;20.90;99.90;;;;;;6192637;23;20439;-88
2022/06/04 08:11:51;;;;;;;13.97;12.53;;;20.90;99.90;;;;;;6198476;23;20418;-89
2022/06/04 08:14:28;;;;;;;13.50;12.10;;;21.10;99.90;;;;;;6188756;23;20406;-89
2022/06/04 08:16:58;;;;;;;13.30;11.80;;;21.30;99.90;;;;;;6190841;23;20371;-88
2022/06/04 08:19:29;;;;;;;13.03;11.70;;;21.40;99.90;;;;;;6191242;23;20473;-89
2022/06/04 08:21:57;;;;;;;14.67;12.70;;;21.70;99.90;;;;;;6210515;23;20382;-91
2022/06/04 08:24:25;;;;;;;13.80;12.60;;;21.80;99.90;;;;;;6211357;23;20422;-89
2022/06/04 08:26:58;;;;;;;14.03;12.73;;;21.80;99.90;;;;;;6193415;23;20515;-89
2022/06/04 08:32:07;;;;;;;14.10;11.97;;;21.90;99.90;;;;;;6217161;22;20437;-91
2022/06/04 08:34:38;;;;;;;13.97;12.57;;;22.00;99.90;;;;;;6224899;23;20481;-89
2022/06/04 08:37:06;;;;;;;13.20;11.20;;;22.10;99.90;;;;;;6222885;23;20418;-89
2022/06/04 08:39:34;;;;;;;12.00;10.87;;;22.20;99.90;;;;;;6215081;22;20469;-88
2022/06/04 08:42:19;;;;;;;11.33;10.23;;;22.50;99.90;;;;;;6224134;23;20444;-89
2022/06/04 08:44:49;;;;;;;14.90;12.30;;;22.60;99.90;;;;;;6230823;22;20393;-88
2022/06/04 08:47:24;;;;;;;12.57;11.37;;;22.60;99.90;;;;;;6234944;23;20370;-89
2022/06/04 08:50:02;;;;;;;10.43;9.43;;;22.30;99.90;;;;;;6197751;23;20441;-89
2022/06/04 08:52:38;;;;;;;12.07;10.50;;;22.20;99.90;;;;;;6193374;23;20407;-89
2022/06/04 08:58:09;;;;;;;12.10;10.53;;;22.40;99.90;;;;;;6206767;23;20923;-87
2022/06/04 09:00:43;;;;;;;10.77;9.67;;;22.50;99.90;;;;;;6211909;23;20394;-89
2022/06/04 09:03:17;;;;;;;12.93;10.47;;;22.30;99.90;;;;;;6205442;23;20387;-89
2022/06/04 09:06:29;;;;;;;10.93;9.87;;;22.40;99.90;;;;;;6210712;23;20410;-89
2022/06/04 09:09:03;;;;;;;11.30;10.10;;;22.60;99.90;;;;;;6187170;23;20430;-88
2022/06/04 09:11:42;;;;;;;15.20;10.40;;;22.50;99.90;;;;;;6192503;23;20413;-89
2022/06/04 09:14:34;;;;;;;12.40;10.57;;;22.60;99.90;;;;;;6192057;23;20696;-88
2022/06/04 09:17:03;;;;;;;11.80;10.47;;;22.80;99.90;;;;;;6192485;23;20438;-87
2022/06/04 09:19:49;;;;;;;35.23;12.70;;;23.00;99.90;;;;;;6191562;23;20442;-88
2022/06/04 09:22:22;;;;;;;14.40;10.50;;;23.20;99.90;;;;;;6192316;23;20420;-88
2022/06/04 09:24:52;;;;;;;12.40;11.00;;;23.10;99.90;;;;;;6191843;23;20414;-88
2022/06/04 09:27:33;;;;;;;15.43;9.70;;;23.40;99.90;;;;;;6193298;23;20419;-88
2022/06/04 09:30:12;;;;;;;15.17;11.00;;;23.80;99.90;;;;;;6192716;23;20437;-88
2022/06/04 09:32:51;;;;;;;17.23;11.53;;;23.70;99.90;;;;;;6192897;23;20449;-88
2022/06/04 09:35:25;;;;;;;15.20;11.57;;;23.60;99.90;;;;;;6193105;23;20799;-90
2022/06/04 09:37:53;;;;;;;14.13;11.50;;;23.80;99.90;;;;;;6194851;23;20414;-88
2022/06/04 09:40:24;;;;;;;13.37;11.37;;;23.90;99.90;;;;;;6194015;23;20433;-89
2022/06/04 09:42:51;;;;;;;13.53;12.17;;;23.90;99.90;;;;;;6197467;23;20499;-89
2022/06/04 09:45:22;;;;;;;15.90;12.70;;;23.90;99.90;;;;;;6194226;23;20441;-89
2022/06/04 09:47:54;;;;;;;15.73;10.93;;;23.80;99.90;;;;;;6195022;23;20481;-88
2022/06/04 09:50:27;;;;;;;11.53;10.27;;;23.90;99.90;;;;;;6194502;23;20441;-89
2022/06/04 09:53:03;;;;;;;13.43;12.03;;;24.00;99.90;;;;;;6194568;23;20376;-88
2022/06/04 09:55:32;;;;;;;13.37;12.07;;;23.70;99.90;;;;;;6195664;23;20433;-88
2022/06/04 09:58:02;;;;;;;13.90;12.47;;;23.60;99.90;;;;;;6194566;23;20430;-88
2022/06/04 10:00:32;;;;;;;14.20;11.90;;;23.70;99.90;;;;;;6193732;23;20473;-88
2022/06/04 10:03:01;;;;;;;17.03;13.67;;;23.40;99.90;;;;;;6195016;23;20449;-88
2022/06/04 10:05:31;;;;;;;14.00;12.60;;;23.30;99.90;;;;;;6194802;23;20434;-89
2022/06/04 10:07:59;;;;;;;13.20;11.30;;;23.30;99.90;;;;;;6193986;23;20439;-86
2022/06/04 10:10:34;;;;;;;16.57;13.50;;;23.30;99.90;;;;;;6194743;23;20728;-88
2022/06/04 10:15:59;;;;;;;12.50;11.27;;;23.20;99.90;;;;;;6205277;23;20535;-88
2022/06/04 10:18:30;;;;;;;11.27;10.20;;;23.10;99.90;;;;;;6205397;23;20513;-86
2022/06/04 10:21:02;;;;;;;11.27;9.90;;;22.90;99.90;;;;;;6197755;23;20769;-88
2022/06/04 10:23:40;;;;;;;12.20;11.00;;;22.90;99.90;;;;;;6198716;23;20414;-89
2022/06/04 10:26:24;;;;;;;16.67;12.57;;;23.10;99.90;;;;;;6210870;23;20393;-88
2022/06/04 10:29:26;;;;;;;12.93;11.40;;;23.00;99.90;;;;;;6212290;23;20419;-88
2022/06/04 10:32:05;;;;;;;14.77;13.10;;;22.90;99.90;;;;;;6211573;23;20375;-88
2022/06/04 10:34:37;;;;;;;15.10;13.70;;;22.70;99.90;;;;;;6213241;23;20403;-86
2022/06/04 10:37:25;;;;;;;15.17;13.73;;;22.70;99.90;;;;;;6213481;23;20481;-86
2022/06/04 10:40:00;;;;;;;13.93;12.63;;;22.80;99.90;;;;;;6213554;23;20430;-87
2022/06/04 10:42:37;;;;;;;15.70;12.50;;;22.90;99.90;;;;;;6210067;23;20411;-87
2022/06/04 10:45:14;;;;;;;13.27;11.90;;;23.20;99.90;;;;;;6198592;23;20419;-87
2022/06/04 10:47:51;;;;;;;15.00;10.57;;;23.40;99.90;;;;;;6195998;23;20414;-88
2022/06/04 10:50:32;;;;;;;13.43;11.23;;;23.50;99.90;;;;;;6195829;23;20475;-88
2022/06/04 10:53:09;;;;;;;12.13;10.73;;;23.40;99.90;;;;;;6196323;23;20430;-89
2022/06/04 10:55:50;;;;;;;12.67;10.40;;;23.20;99.90;;;;;;6198557;23;20494;-88
2022/06/04 10:58:30;;;;;;;12.73;11.03;;;23.10;99.90;;;;;;6196505;23;20711;-87
2022/06/04 11:01:03;;;;;;;12.80;11.60;;;22.80;99.90;;;;;;6196547;23;20411;-87
2022/06/04 11:03:40;;;;;;;13.90;11.40;;;22.50;99.90;;;;;;6196144;23;20402;-88
2022/06/04 11:06:14;;;;;;;13.63;12.10;;;22.40;99.90;;;;;;6196237;23;20390;-88
2022/06/04 11:08:48;;;;;;;15.83;12.37;;;22.50;99.90;;;;;;6196166;23;20473;-87
2022/06/04 11:11:20;;;;;;;14.30;12.90;;;22.30;99.90;;;;;;6202376;23;20403;-87
2022/06/04 11:13:52;;;;;;;14.17;12.77;;;22.10;99.90;;;;;;6199335;23;20410;-88
2022/06/04 11:16:23;;;;;;;15.73;13.07;;;22.20;99.90;;;;;;6199601;23;20507;-89
2022/06/04 11:18:56;;;;;;;15.30;13.80;;;22.10;99.90;;;;;;6196687;23;20576;-88
2022/06/04 11:21:37;;;;;;;14.53;13.07;;;22.20;99.90;;;;;;6197847;23;20426;-88
2022/06/04 11:24:15;;;;;;;16.10;14.60;;;22.40;99.90;;;;;;6199668;23;20374;-89
2022/06/04 11:26:54;;;;;;;15.57;14.07;;;22.50;99.90;;;;;;6196072;23;20465;-88
2022/06/04 11:29:23;;;;;;;15.73;14.23;;;22.30;99.90;;;;;;6196017;23;20461;-89
2022/06/04 11:32:04;;;;;;;17.50;15.90;;;22.20;99.90;;;;;;6196441;23;20673;-88
2022/06/04 11:35:08;;;;;;;19.40;17.47;;;22.30;99.90;;;;;;6197338;23;20399;-87
2022/06/04 11:37:52;;;;;;;18.00;16.30;;;22.10;99.90;;;;;;6183579;23;20446;-87
2022/06/04 11:40:38;;;;;;;20.30;18.40;;;22.10;99.90;;;;;;6207163;23;20501;-88
2022/06/04 11:43:20;;;;;;;20.30;18.37;;;22.10;99.90;;;;;;6197667;23;20380;-88
2022/06/04 11:46:13;;;;;;;21.23;18.90;;;22.00;99.90;;;;;;6206545;23;20458;-89
2022/06/04 11:48:55;;;;;;;22.57;20.03;;;22.20;99.90;;;;;;6201082;23;20424;-88
2022/06/04 11:51:48;;;;;;;22.70;20.47;;;22.30;99.90;;;;;;6212093;23;20454;-88
2022/06/04 11:54:33;;;;;;;23.73;21.33;;;22.20;99.90;;;;;;6205106;23;20399;-88
2022/06/04 11:57:12;;;;;;;22.53;20.50;;;22.10;99.90;;;;;;6209168;23;20902;-88
2022/06/04 11:59:58;;;;;;;24.43;22.27;;;22.20;99.90;;;;;;6202237;23;20434;-88
2022/06/04 12:02:33;;;;;;;21.93;19.90;;;22.20;99.90;;;;;;6196461;23;20414;-87
2022/06/04 12:05:11;;;;;;;21.13;18.93;;;22.20;99.90;;;;;;6197327;23;20379;-87
2022/06/04 12:07:42;;;;;;;22.70;18.50;;;22.30;99.90;;;;;;6196420;23;20395;-87
2022/06/04 12:10:23;;;;;;;22.47;18.73;;;22.50;99.90;;;;;;6195936;23;20679;-87
2022/06/04 12:13:00;;;;;;;21.53;19.60;;;22.70;99.90;;;;;;6195245;23;20399;-88
2022/06/04 12:15:44;;;;;;;22.17;20.07;;;22.90;99.90;;;;;;6197169;23;20403;-88
2022/06/04 12:18:26;;;;;;;21.93;19.83;;;23.10;99.90;;;;;;6200292;23;20461;-88
2022/06/04 12:26:34;;;;;;;22.83;20.73;;;23.10;99.90;;;;;;6195944;23;20366;-87
2022/06/04 12:29:23;;;;;;;22.13;20.03;;;23.30;99.90;;;;;;6196207;23;20937;-87
2022/06/04 12:31:57;;;;;;;24.53;22.03;;;23.40;99.90;;;;;;6196667;23;20445;-88
2022/06/04 12:34:31;;;;;;;22.77;20.67;;;23.60;99.90;;;;;;6195901;23;20894;-88
2022/06/04 12:36:59;;;;;;;21.80;19.60;;;23.70;99.90;;;;;;6196349;23;20430;-88
2022/06/04 12:39:30;;;;;;;21.43;19.33;;;23.80;99.90;;;;;;6198715;23;20446;-87
2022/06/04 12:42:00;;;;;;;22.70;20.60;;;23.70;99.90;;;;;;6210626;23;20407;-88
2022/06/04 12:44:31;;;;;;;23.37;21.27;;;23.70;99.90;;;;;;6199434;23;20438;-89
2022/06/04 12:47:14;;;;;;;21.47;19.43;;;23.70;99.90;;;;;;6201138;23;20415;-88
2022/06/04 12:49:49;;;;;;;20.90;19.10;;;23.90;99.90;;;;;;6200823;23;20430;-88
2022/06/04 12:52:35;;;;;;;22.13;20.20;;;24.00;99.90;;;;;;6211796;23;20470;-87
2022/06/04 12:55:14;;;;;;;19.17;17.27;;;24.00;99.90;;;;;;6212352;23;20406;-88
2022/06/04 12:57:48;;;;;;;22.00;20.00;;;24.10;99.90;;;;;;6210378;23;20450;-88
2022/06/04 13:00:43;;;;;;;21.07;19.17;;;24.40;99.90;;;;;;6202413;23;20845;-89
2022/06/04 13:03:38;;;;;;;19.73;17.97;;;24.30;99.90;;;;;;6196162;23;20874;-89
2022/06/04 13:06:36;;;;;;;18.50;16.80;;;24.30;99.90;;;;;;6196376;23;20419;-87
2022/06/04 13:09:22;;;;;;;17.97;16.37;;;24.50;99.90;;;;;;6201884;23;20434;-88
2022/06/04 13:12:01;;;;;;;20.10;18.10;;;24.60;99.90;;;;;;6208748;23;20694;-88
2022/06/04 13:14:39;;;;;;;18.93;17.30;;;24.80;99.90;;;;;;6210120;23;20406;-88
2022/06/04 13:17:26;;;;;;;16.67;15.17;;;24.80;99.90;;;;;;6209523;23;20458;-89
2022/06/04 13:20:11;;;;;;;17.10;15.40;;;24.80;99.90;;;;;;6198000;23;20439;-89
2022/06/04 13:22:45;;;;;;;15.43;13.93;;;25.00;99.90;;;;;;6198367;23;20811;-88
2022/06/04 13:25:23;;;;;;;15.43;13.87;;;24.90;99.90;;;;;;6203233;23;20434;-87